sensor_id;sensor_type;location;lat;lon;timestamp;P1;durP1;ratioP1;P2;durP2;ratioP2
11699;SDS011;5906;51.660;6.674;2022-12-20T00:01:25;10.03;;;6.00;;
11699;SDS011;5906;51.660;6.674;2022-12-20T00:04:00;9.33;;;6.20;;
11699;SDS011;5906;51.660;6.674;2022-12-20T00:06:28;9.60;;;6.70;;
11699;SDS011;5906;51.660;6.674;2022-12-20T00:08:57;10.00;;;6.40;;
11699;SDS011;5906;51.660;6.674;2022-12-20T00:11:26;11.20;;;5.60;;
11699;SDS011;5906;51.660;6.674;2022-12-20T00:13:54;10.03;;;6.30;;
11699;SDS011;5906;51.660;6.674;2022-12-20T00:16:22;13.13;;;6.13;;
11699;SDS011;5906;51.660;6.674;2022-12-20T00:18:52;15.43;;;5.90;;
11699;SDS011;5906;51.660;6.674;2022-12-20T00:21:24;8.17;;;5.03;;
11699;SDS011;5906;51.660;6.674;2022-12-20T00:23:51;8.40;;;5.57;;
11699;SDS011;5906;51.660;6.674;2022-12-20T00:26:21;9.50;;;5.07;;
11699;SDS011;5906;51.660;6.674;2022-12-20T00:28:51;10.20;;;5.27;;
11699;SDS011;5906;51.660;6.674;2022-12-20T00:31:19;9.83;;;5.63;;
11699;SDS011;5906;51.660;6.674;2022-12-20T00:33:48;7.63;;;5.17;;
11699;SDS011;5906;51.660;6.674;2022-12-20T00:36:16;13.13;;;5.20;;
11699;SDS011;5906;51.660;6.674;2022-12-20T00:38:44;8.77;;;4.50;;
11699;SDS011;5906;51.660;6.674;2022-12-20T00:41:16;5.70;;;4.70;;
11699;SDS011;5906;51.660;6.674;2022-12-20T00:43:46;7.07;;;5.00;;
11699;SDS011;5906;51.660;6.674;2022-12-20T00:46:14;7.07;;;4.70;;
11699;SDS011;5906;51.660;6.674;2022-12-20T00:48:42;10.33;;;5.00;;
11699;SDS011;5906;51.660;6.674;2022-12-20T00:51:13;8.17;;;5.30;;
11699;SDS011;5906;51.660;6.674;2022-12-20T00:53:42;9.27;;;5.03;;
11699;SDS011;5906;51.660;6.674;2022-12-20T00:56:10;9.77;;;5.00;;
11699;SDS011;5906;51.660;6.674;2022-12-20T00:58:38;10.63;;;5.60;;
11699;SDS011;5906;51.660;6.674;2022-12-20T01:01:13;11.27;;;5.47;;
11699;SDS011;5906;51.660;6.674;2022-12-20T01:03:49;9.30;;;5.40;;
11699;SDS011;5906;51.660;6.674;2022-12-20T01:06:17;9.63;;;4.80;;
11699;SDS011;5906;51.660;6.674;2022-12-20T01:08:45;10.50;;;4.73;;
11699;SDS011;5906;51.660;6.674;2022-12-20T01:11:14;7.93;;;5.03;;
11699;SDS011;5906;51.660;6.674;2022-12-20T01:13:44;11.57;;;5.20;;
11699;SDS011;5906;51.660;6.674;2022-12-20T01:18:44;7.60;;;4.67;;
11699;SDS011;5906;51.660;6.674;2022-12-20T01:21:13;9.27;;;4.73;;
11699;SDS011;5906;51.660;6.674;2022-12-20T01:23:42;6.30;;;4.50;;
11699;SDS011;5906;51.660;6.674;2022-12-20T01:26:10;10.27;;;5.07;;
11699;SDS011;5906;51.660;6.674;2022-12-20T01:28:40;6.33;;;4.30;;
11699;SDS011;5906;51.660;6.674;2022-12-20T01:31:09;7.87;;;5.27;;
11699;SDS011;5906;51.660;6.674;2022-12-20T01:33:38;12.20;;;4.87;;
11699;SDS011;5906;51.660;6.674;2022-12-20T01:36:07;6.17;;;4.57;;
11699;SDS011;5906;51.660;6.674;2022-12-20T01:38:37;7.40;;;4.37;;
11699;SDS011;5906;51.660;6.674;2022-12-20T01:41:05;8.33;;;4.60;;
11699;SDS011;5906;51.660;6.674;2022-12-20T01:43:51;6.27;;;4.73;;
11699;SDS011;5906;51.660;6.674;2022-12-20T01:46:24;8.93;;;4.47;;
11699;SDS011;5906;51.660;6.674;2022-12-20T01:51:31;6.77;;;4.20;;
11699;SDS011;5906;51.660;6.674;2022-12-20T01:54:04;11.00;;;4.90;;
11699;SDS011;5906;51.660;6.674;2022-12-20T01:56:38;6.47;;;4.10;;
11699;SDS011;5906;51.660;6.674;2022-12-20T01:59:08;8.97;;;4.60;;
11699;SDS011;5906;51.660;6.674;2022-12-20T02:01:36;7.30;;;4.90;;
11699;SDS011;5906;51.660;6.674;2022-12-20T02:04:03;6.77;;;4.50;;
11699;SDS011;5906;51.660;6.674;2022-12-20T02:06:30;4.70;;;3.70;;
11699;SDS011;5906;51.660;6.674;2022-12-20T02:08:58;6.77;;;4.17;;
11699;SDS011;5906;51.660;6.674;2022-12-20T02:16:27;6.20;;;4.17;;
11699;SDS011;5906;51.660;6.674;2022-12-20T02:18:59;6.57;;;3.87;;
11699;SDS011;5906;51.660;6.674;2022-12-20T02:21:38;6.93;;;3.73;;
11699;SDS011;5906;51.660;6.674;2022-12-20T02:24:12;11.50;;;4.10;;
11699;SDS011;5906;51.660;6.674;2022-12-20T02:27:04;4.40;;;3.80;;
11699;SDS011;5906;51.660;6.674;2022-12-20T02:32:24;6.03;;;4.10;;
11699;SDS011;5906;51.660;6.674;2022-12-20T02:35:02;6.20;;;3.73;;
11699;SDS011;5906;51.660;6.674;2022-12-20T02:37:32;5.20;;;4.20;;
11699;SDS011;5906;51.660;6.674;2022-12-20T02:39:59;5.00;;;3.77;;
11699;SDS011;5906;51.660;6.674;2022-12-20T02:42:29;6.70;;;4.13;;
11699;SDS011;5906;51.660;6.674;2022-12-20T02:44:59;3.60;;;3.30;;
11699;SDS011;5906;51.660;6.674;2022-12-20T02:50:27;7.67;;;3.57;;
11699;SDS011;5906;51.660;6.674;2022-12-20T02:53:00;7.67;;;4.37;;
11699;SDS011;5906;51.660;6.674;2022-12-20T02:58:53;5.73;;;4.10;;
11699;SDS011;5906;51.660;6.674;2022-12-20T03:01:26;5.97;;;4.00;;
11699;SDS011;5906;51.660;6.674;2022-12-20T03:03:57;6.23;;;4.00;;
11699;SDS011;5906;51.660;6.674;2022-12-20T03:06:24;6.00;;;3.30;;
11699;SDS011;5906;51.660;6.674;2022-12-20T03:08:51;9.07;;;4.20;;
11699;SDS011;5906;51.660;6.674;2022-12-20T03:11:18;16.00;;;4.33;;
11699;SDS011;5906;51.660;6.674;2022-12-20T03:13:45;11.40;;;3.93;;
11699;SDS011;5906;51.660;6.674;2022-12-20T03:16:13;6.03;;;4.03;;
11699;SDS011;5906;51.660;6.674;2022-12-20T03:18:39;5.37;;;4.13;;
11699;SDS011;5906;51.660;6.674;2022-12-20T03:21:06;8.70;;;5.30;;
11699;SDS011;5906;51.660;6.674;2022-12-20T03:23:33;11.20;;;4.27;;
11699;SDS011;5906;51.660;6.674;2022-12-20T03:26:00;10.80;;;4.53;;
11699;SDS011;5906;51.660;6.674;2022-12-20T03:28:27;6.40;;;4.30;;
11699;SDS011;5906;51.660;6.674;2022-12-20T03:30:54;7.93;;;4.00;;
11699;SDS011;5906;51.660;6.674;2022-12-20T03:33:21;5.30;;;4.20;;
11699;SDS011;5906;51.660;6.674;2022-12-20T03:35:47;7.13;;;4.60;;
11699;SDS011;5906;51.660;6.674;2022-12-20T03:38:14;5.23;;;4.50;;
11699;SDS011;5906;51.660;6.674;2022-12-20T03:40:41;6.53;;;4.20;;
11699;SDS011;5906;51.660;6.674;2022-12-20T03:43:08;5.67;;;4.00;;
11699;SDS011;5906;51.660;6.674;2022-12-20T03:45:35;7.00;;;4.27;;
11699;SDS011;5906;51.660;6.674;2022-12-20T03:48:01;5.80;;;4.23;;
11699;SDS011;5906;51.660;6.674;2022-12-20T03:50:28;5.00;;;3.93;;
11699;SDS011;5906;51.660;6.674;2022-12-20T03:52:56;7.43;;;4.50;;
11699;SDS011;5906;51.660;6.674;2022-12-20T03:55:23;4.83;;;4.07;;
11699;SDS011;5906;51.660;6.674;2022-12-20T03:57:50;9.90;;;4.50;;
11699;SDS011;5906;51.660;6.674;2022-12-20T04:00:17;8.60;;;5.00;;
11699;SDS011;5906;51.660;6.674;2022-12-20T04:02:44;7.80;;;5.67;;
11699;SDS011;5906;51.660;6.674;2022-12-20T04:05:11;10.47;;;5.40;;
11699;SDS011;5906;51.660;6.674;2022-12-20T04:07:38;11.50;;;5.80;;
11699;SDS011;5906;51.660;6.674;2022-12-20T04:10:04;10.90;;;5.50;;
11699;SDS011;5906;51.660;6.674;2022-12-20T04:12:32;9.60;;;6.30;;
11699;SDS011;5906;51.660;6.674;2022-12-20T04:14:59;9.10;;;5.50;;
11699;SDS011;5906;51.660;6.674;2022-12-20T04:17:26;12.97;;;7.20;;
11699;SDS011;5906;51.660;6.674;2022-12-20T04:19:52;11.03;;;6.43;;
11699;SDS011;5906;51.660;6.674;2022-12-20T04:22:19;9.40;;;6.60;;
11699;SDS011;5906;51.660;6.674;2022-12-20T04:24:46;11.43;;;6.10;;
11699;SDS011;5906;51.660;6.674;2022-12-20T04:27:14;10.13;;;6.00;;
11699;SDS011;5906;51.660;6.674;2022-12-20T04:29:41;9.90;;;5.57;;
11699;SDS011;5906;51.660;6.674;2022-12-20T04:32:07;10.73;;;5.47;;
11699;SDS011;5906;51.660;6.674;2022-12-20T04:34:34;5.03;;;4.37;;
11699;SDS011;5906;51.660;6.674;2022-12-20T04:37:01;6.73;;;5.03;;
11699;SDS011;5906;51.660;6.674;2022-12-20T04:39:27;9.07;;;5.87;;
11699;SDS011;5906;51.660;6.674;2022-12-20T04:41:55;9.13;;;5.30;;
11699;SDS011;5906;51.660;6.674;2022-12-20T04:44:22;7.50;;;4.97;;
11699;SDS011;5906;51.660;6.674;2022-12-20T04:46:50;7.30;;;6.03;;
11699;SDS011;5906;51.660;6.674;2022-12-20T04:49:17;7.60;;;5.77;;
11699;SDS011;5906;51.660;6.674;2022-12-20T04:51:44;7.33;;;5.30;;
11699;SDS011;5906;51.660;6.674;2022-12-20T04:54:11;14.50;;;5.90;;
11699;SDS011;5906;51.660;6.674;2022-12-20T04:56:38;9.03;;;6.07;;
11699;SDS011;5906;51.660;6.674;2022-12-20T04:59:05;12.37;;;6.43;;
11699;SDS011;5906;51.660;6.674;2022-12-20T05:01:33;9.97;;;6.40;;
11699;SDS011;5906;51.660;6.674;2022-12-20T05:04:00;14.60;;;6.37;;
11699;SDS011;5906;51.660;6.674;2022-12-20T05:06:27;10.03;;;6.00;;
11699;SDS011;5906;51.660;6.674;2022-12-20T05:08:54;16.10;;;6.97;;
11699;SDS011;5906;51.660;6.674;2022-12-20T05:11:21;11.60;;;6.43;;
11699;SDS011;5906;51.660;6.674;2022-12-20T05:13:48;13.13;;;6.50;;
11699;SDS011;5906;51.660;6.674;2022-12-20T05:16:15;15.10;;;7.40;;
11699;SDS011;5906;51.660;6.674;2022-12-20T05:18:42;10.80;;;5.63;;
11699;SDS011;5906;51.660;6.674;2022-12-20T05:21:14;11.43;;;6.30;;
11699;SDS011;5906;51.660;6.674;2022-12-20T05:24:00;10.77;;;6.43;;
11699;SDS011;5906;51.660;6.674;2022-12-20T05:26:46;9.40;;;6.20;;
11699;SDS011;5906;51.660;6.674;2022-12-20T05:29:13;9.97;;;6.03;;
11699;SDS011;5906;51.660;6.674;2022-12-20T05:31:39;11.93;;;6.20;;
11699;SDS011;5906;51.660;6.674;2022-12-20T05:34:06;8.87;;;6.60;;
11699;SDS011;5906;51.660;6.674;2022-12-20T05:36:33;11.20;;;6.73;;
11699;SDS011;5906;51.660;6.674;2022-12-20T05:38:59;11.23;;;6.47;;
11699;SDS011;5906;51.660;6.674;2022-12-20T05:41:29;10.93;;;6.67;;
11699;SDS011;5906;51.660;6.674;2022-12-20T05:43:56;12.10;;;6.10;;
11699;SDS011;5906;51.660;6.674;2022-12-20T05:46:23;11.37;;;6.50;;
11699;SDS011;5906;51.660;6.674;2022-12-20T05:48:50;9.93;;;6.73;;
11699;SDS011;5906;51.660;6.674;2022-12-20T05:51:17;10.30;;;7.00;;
11699;SDS011;5906;51.660;6.674;2022-12-20T05:53:44;11.87;;;7.47;;
11699;SDS011;5906;51.660;6.674;2022-12-20T05:56:10;19.83;;;7.63;;
11699;SDS011;5906;51.660;6.674;2022-12-20T05:58:37;21.00;;;7.30;;
11699;SDS011;5906;51.660;6.674;2022-12-20T06:01:06;14.23;;;8.00;;
11699;SDS011;5906;51.660;6.674;2022-12-20T06:03:34;13.20;;;7.13;;
11699;SDS011;5906;51.660;6.674;2022-12-20T06:06:01;12.17;;;7.80;;
11699;SDS011;5906;51.660;6.674;2022-12-20T06:08:33;9.37;;;7.37;;
11699;SDS011;5906;51.660;6.674;2022-12-20T06:11:00;12.90;;;7.40;;
11699;SDS011;5906;51.660;6.674;2022-12-20T06:13:30;15.20;;;8.50;;
11699;SDS011;5906;51.660;6.674;2022-12-20T06:15:57;19.90;;;8.90;;
11699;SDS011;5906;51.660;6.674;2022-12-20T06:18:25;12.37;;;7.63;;
11699;SDS011;5906;51.660;6.674;2022-12-20T06:20:53;16.40;;;7.87;;
11699;SDS011;5906;51.660;6.674;2022-12-20T06:23:20;12.07;;;7.70;;
11699;SDS011;5906;51.660;6.674;2022-12-20T06:25:47;15.20;;;8.53;;
11699;SDS011;5906;51.660;6.674;2022-12-20T06:28:14;13.20;;;7.83;;
11699;SDS011;5906;51.660;6.674;2022-12-20T06:30:53;11.90;;;5.93;;
11699;SDS011;5906;51.660;6.674;2022-12-20T06:33:21;9.50;;;6.30;;
11699;SDS011;5906;51.660;6.674;2022-12-20T06:35:51;12.40;;;7.77;;
11699;SDS011;5906;51.660;6.674;2022-12-20T06:38:18;11.20;;;7.30;;
11699;SDS011;5906;51.660;6.674;2022-12-20T06:40:45;18.20;;;7.67;;
11699;SDS011;5906;51.660;6.674;2022-12-20T06:43:12;9.43;;;6.80;;
11699;SDS011;5906;51.660;6.674;2022-12-20T06:45:38;13.20;;;6.30;;
11699;SDS011;5906;51.660;6.674;2022-12-20T06:48:07;10.50;;;6.10;;
11699;SDS011;5906;51.660;6.674;2022-12-20T06:50:34;7.67;;;6.10;;
11699;SDS011;5906;51.660;6.674;2022-12-20T06:53:00;10.00;;;5.30;;
11699;SDS011;5906;51.660;6.674;2022-12-20T06:55:27;8.40;;;5.33;;
11699;SDS011;5906;51.660;6.674;2022-12-20T06:57:54;8.50;;;5.80;;
11699;SDS011;5906;51.660;6.674;2022-12-20T07:00:21;8.80;;;5.80;;
11699;SDS011;5906;51.660;6.674;2022-12-20T07:02:49;10.23;;;5.23;;
11699;SDS011;5906;51.660;6.674;2022-12-20T07:05:16;8.63;;;5.07;;
11699;SDS011;5906;51.660;6.674;2022-12-20T07:07:43;8.63;;;5.40;;
11699;SDS011;5906;51.660;6.674;2022-12-20T07:10:10;10.87;;;5.50;;
11699;SDS011;5906;51.660;6.674;2022-12-20T07:12:37;15.53;;;5.60;;
11699;SDS011;5906;51.660;6.674;2022-12-20T07:15:12;8.57;;;5.03;;
11699;SDS011;5906;51.660;6.674;2022-12-20T07:17:39;9.10;;;4.70;;
11699;SDS011;5906;51.660;6.674;2022-12-20T07:20:06;14.53;;;5.10;;
11699;SDS011;5906;51.660;6.674;2022-12-20T07:22:38;9.30;;;4.97;;
11699;SDS011;5906;51.660;6.674;2022-12-20T07:25:05;14.57;;;5.40;;
11699;SDS011;5906;51.660;6.674;2022-12-20T07:27:32;6.30;;;4.40;;
11699;SDS011;5906;51.660;6.674;2022-12-20T07:29:59;12.03;;;5.07;;
11699;SDS011;5906;51.660;6.674;2022-12-20T07:32:26;9.30;;;4.97;;
11699;SDS011;5906;51.660;6.674;2022-12-20T07:34:52;10.13;;;5.00;;
11699;SDS011;5906;51.660;6.674;2022-12-20T07:37:19;9.33;;;5.10;;
11699;SDS011;5906;51.660;6.674;2022-12-20T07:39:46;7.20;;;5.40;;
11699;SDS011;5906;51.660;6.674;2022-12-20T07:42:13;7.83;;;4.67;;
11699;SDS011;5906;51.660;6.674;2022-12-20T07:44:40;9.33;;;5.37;;
11699;SDS011;5906;51.660;6.674;2022-12-20T07:47:08;8.30;;;4.83;;
11699;SDS011;5906;51.660;6.674;2022-12-20T07:49:35;8.87;;;5.37;;
11699;SDS011;5906;51.660;6.674;2022-12-20T07:52:02;6.23;;;4.67;;
11699;SDS011;5906;51.660;6.674;2022-12-20T07:54:32;7.70;;;5.00;;
11699;SDS011;5906;51.660;6.674;2022-12-20T07:57:09;15.23;;;5.07;;
11699;SDS011;5906;51.660;6.674;2022-12-20T07:59:42;5.50;;;4.37;;
11699;SDS011;5906;51.660;6.674;2022-12-20T08:02:14;7.10;;;5.50;;
11699;SDS011;5906;51.660;6.674;2022-12-20T08:04:44;11.30;;;5.10;;
11699;SDS011;5906;51.660;6.674;2022-12-20T08:09:41;9.27;;;5.67;;
11699;SDS011;5906;51.660;6.674;2022-12-20T08:12:11;12.77;;;5.07;;
11699;SDS011;5906;51.660;6.674;2022-12-20T08:14:40;8.73;;;5.50;;
11699;SDS011;5906;51.660;6.674;2022-12-20T08:17:08;12.43;;;5.33;;
11699;SDS011;5906;51.660;6.674;2022-12-20T08:19:36;8.17;;;5.40;;
11699;SDS011;5906;51.660;6.674;2022-12-20T08:22:04;12.17;;;5.10;;
11699;SDS011;5906;51.660;6.674;2022-12-20T08:24:32;12.20;;;6.20;;
11699;SDS011;5906;51.660;6.674;2022-12-20T08:26:59;10.27;;;6.20;;
11699;SDS011;5906;51.660;6.674;2022-12-20T08:29:26;10.07;;;6.10;;
11699;SDS011;5906;51.660;6.674;2022-12-20T08:31:54;11.77;;;5.47;;
11699;SDS011;5906;51.660;6.674;2022-12-20T08:34:21;6.27;;;5.33;;
11699;SDS011;5906;51.660;6.674;2022-12-20T08:36:48;7.03;;;5.00;;
11699;SDS011;5906;51.660;6.674;2022-12-20T08:39:14;7.00;;;4.93;;
11699;SDS011;5906;51.660;6.674;2022-12-20T08:41:41;7.93;;;5.00;;
11699;SDS011;5906;51.660;6.674;2022-12-20T08:44:08;10.00;;;5.63;;
11699;SDS011;5906;51.660;6.674;2022-12-20T08:46:36;8.47;;;4.87;;
11699;SDS011;5906;51.660;6.674;2022-12-20T08:49:04;7.93;;;5.00;;
11699;SDS011;5906;51.660;6.674;2022-12-20T08:51:31;7.80;;;5.50;;
11699;SDS011;5906;51.660;6.674;2022-12-20T08:53:59;10.67;;;5.23;;
11699;SDS011;5906;51.660;6.674;2022-12-20T08:56:27;6.53;;;4.40;;
11699;SDS011;5906;51.660;6.674;2022-12-20T08:58:54;12.10;;;4.97;;
11699;SDS011;5906;51.660;6.674;2022-12-20T09:01:21;8.93;;;5.67;;
11699;SDS011;5906;51.660;6.674;2022-12-20T09:03:49;7.33;;;5.17;;
11699;SDS011;5906;51.660;6.674;2022-12-20T09:06:17;8.60;;;5.27;;
11699;SDS011;5906;51.660;6.674;2022-12-20T09:08:46;9.97;;;6.00;;
11699;SDS011;5906;51.660;6.674;2022-12-20T09:11:14;8.20;;;5.00;;
11699;SDS011;5906;51.660;6.674;2022-12-20T09:13:43;7.73;;;4.77;;
11699;SDS011;5906;51.660;6.674;2022-12-20T09:16:12;9.70;;;5.23;;
11699;SDS011;5906;51.660;6.674;2022-12-20T09:18:40;9.27;;;4.87;;
11699;SDS011;5906;51.660;6.674;2022-12-20T09:21:08;9.43;;;4.70;;
11699;SDS011;5906;51.660;6.674;2022-12-20T09:23:36;14.60;;;5.23;;
11699;SDS011;5906;51.660;6.674;2022-12-20T09:26:15;7.90;;;4.30;;
11699;SDS011;5906;51.660;6.674;2022-12-20T09:28:43;8.03;;;5.00;;
11699;SDS011;5906;51.660;6.674;2022-12-20T09:31:12;7.37;;;4.27;;
11699;SDS011;5906;51.660;6.674;2022-12-20T09:33:43;6.80;;;4.30;;
11699;SDS011;5906;51.660;6.674;2022-12-20T09:36:15;7.33;;;4.53;;
11699;SDS011;5906;51.660;6.674;2022-12-20T09:38:44;6.00;;;4.00;;
11699;SDS011;5906;51.660;6.674;2022-12-20T09:41:21;7.53;;;4.53;;
11699;SDS011;5906;51.660;6.674;2022-12-20T09:43:58;7.27;;;4.20;;
11699;SDS011;5906;51.660;6.674;2022-12-20T09:46:29;6.73;;;4.40;;
11699;SDS011;5906;51.660;6.674;2022-12-20T09:48:56;9.13;;;4.73;;
11699;SDS011;5906;51.660;6.674;2022-12-20T09:51:36;5.90;;;4.20;;
11699;SDS011;5906;51.660;6.674;2022-12-20T09:59:42;18.80;;;4.43;;
11699;SDS011;5906;51.660;6.674;2022-12-20T10:02:22;5.63;;;4.40;;
11699;SDS011;5906;51.660;6.674;2022-12-20T10:05:18;7.80;;;4.40;;
11699;SDS011;5906;51.660;6.674;2022-12-20T10:07:54;7.57;;;4.57;;
11699;SDS011;5906;51.660;6.674;2022-12-20T10:16:18;7.03;;;4.80;;
11699;SDS011;5906;51.660;6.674;2022-12-20T10:19:03;5.67;;;5.03;;
11699;SDS011;5906;51.660;6.674;2022-12-20T10:24:20;7.23;;;4.50;;
11699;SDS011;5906;51.660;6.674;2022-12-20T10:26:53;5.30;;;4.50;;
11699;SDS011;5906;51.660;6.674;2022-12-20T10:29:20;6.03;;;4.60;;
11699;SDS011;5906;51.660;6.674;2022-12-20T10:31:52;5.40;;;4.33;;
11699;SDS011;5906;51.660;6.674;2022-12-20T10:34:24;6.63;;;4.40;;
11699;SDS011;5906;51.660;6.674;2022-12-20T10:37:11;11.03;;;4.97;;
11699;SDS011;5906;51.660;6.674;2022-12-20T10:39:47;12.63;;;4.70;;
11699;SDS011;5906;51.660;6.674;2022-12-20T10:42:50;8.80;;;5.73;;
11699;SDS011;5906;51.660;6.674;2022-12-20T10:47:40;11.90;;;5.60;;
11699;SDS011;5906;51.660;6.674;2022-12-20T10:50:18;8.23;;;4.80;;
11699;SDS011;5906;51.660;6.674;2022-12-20T10:55:50;6.70;;;4.40;;
11699;SDS011;5906;51.660;6.674;2022-12-20T11:01:17;5.90;;;5.00;;
11699;SDS011;5906;51.660;6.674;2022-12-20T11:06:24;4.67;;;4.17;;
11699;SDS011;5906;51.660;6.674;2022-12-20T11:09:16;11.53;;;4.20;;
11699;SDS011;5906;51.660;6.674;2022-12-20T11:14:39;4.20;;;3.80;;
11699;SDS011;5906;51.660;6.674;2022-12-20T11:41:43;6.70;;;4.33;;
11699;SDS011;5906;51.660;6.674;2022-12-20T12:00:43;11.90;;;5.90;;
11699;SDS011;5906;51.660;6.674;2022-12-20T12:06:04;5.83;;;5.20;;
11699;SDS011;5906;51.660;6.674;2022-12-20T12:08:47;8.37;;;5.13;;
11699;SDS011;5906;51.660;6.674;2022-12-20T12:11:33;7.63;;;5.50;;
11699;SDS011;5906;51.660;6.674;2022-12-20T12:14:34;8.70;;;5.27;;
11699;SDS011;5906;51.660;6.674;2022-12-20T12:17:08;7.70;;;5.20;;
11699;SDS011;5906;51.660;6.674;2022-12-20T12:19:41;9.37;;;5.50;;
11699;SDS011;5906;51.660;6.674;2022-12-20T12:22:14;12.73;;;6.40;;
11699;SDS011;5906;51.660;6.674;2022-12-20T12:24:47;7.23;;;5.67;;
11699;SDS011;5906;51.660;6.674;2022-12-20T12:27:25;8.27;;;5.60;;
11699;SDS011;5906;51.660;6.674;2022-12-20T12:29:53;8.03;;;5.53;;
11699;SDS011;5906;51.660;6.674;2022-12-20T12:32:31;8.57;;;5.67;;
11699;SDS011;5906;51.660;6.674;2022-12-20T12:46:31;6.87;;;5.60;;
11699;SDS011;5906;51.660;6.674;2022-12-20T12:49:05;6.33;;;4.83;;
11699;SDS011;5906;51.660;6.674;2022-12-20T12:51:50;7.93;;;5.80;;
11699;SDS011;5906;51.660;6.674;2022-12-20T12:54:33;7.20;;;5.37;;
11699;SDS011;5906;51.660;6.674;2022-12-20T12:57:09;7.20;;;5.40;;
11699;SDS011;5906;51.660;6.674;2022-12-20T13:04:52;9.40;;;5.00;;
11699;SDS011;5906;51.660;6.674;2022-12-20T13:20:21;6.90;;;4.40;;
11699;SDS011;5906;51.660;6.674;2022-12-20T13:25:34;7.57;;;5.00;;
11699;SDS011;5906;51.660;6.674;2022-12-20T13:30:43;5.43;;;4.47;;
11699;SDS011;5906;51.660;6.674;2022-12-20T13:33:19;9.53;;;5.10;;
11699;SDS011;5906;51.660;6.674;2022-12-20T13:35:57;7.00;;;4.27;;
11699;SDS011;5906;51.660;6.674;2022-12-20T13:41:22;4.40;;;4.00;;
11699;SDS011;5906;51.660;6.674;2022-12-20T13:44:09;7.47;;;4.43;;
11699;SDS011;5906;51.660;6.674;2022-12-20T13:49:25;7.00;;;4.77;;
11699;SDS011;5906;51.660;6.674;2022-12-20T13:52:21;6.20;;;4.60;;
11699;SDS011;5906;51.660;6.674;2022-12-20T13:54:53;6.00;;;5.07;;
11699;SDS011;5906;51.660;6.674;2022-12-20T13:57:26;8.20;;;5.07;;
11699;SDS011;5906;51.660;6.674;2022-12-20T13:59:57;12.53;;;5.23;;
11699;SDS011;5906;51.660;6.674;2022-12-20T14:02:33;7.33;;;5.17;;
11699;SDS011;5906;51.660;6.674;2022-12-20T14:05:11;8.60;;;4.97;;
11699;SDS011;5906;51.660;6.674;2022-12-20T14:07:41;9.90;;;5.57;;
11699;SDS011;5906;51.660;6.674;2022-12-20T14:10:16;6.17;;;4.50;;
11699;SDS011;5906;51.660;6.674;2022-12-20T14:12:46;7.93;;;5.07;;
11699;SDS011;5906;51.660;6.674;2022-12-20T14:18:17;9.73;;;5.87;;
11699;SDS011;5906;51.660;6.674;2022-12-20T14:20:55;12.60;;;5.20;;
11699;SDS011;5906;51.660;6.674;2022-12-20T14:23:25;10.20;;;5.83;;
11699;SDS011;5906;51.660;6.674;2022-12-20T14:25:58;7.93;;;4.40;;
11699;SDS011;5906;51.660;6.674;2022-12-20T14:31:03;9.53;;;5.73;;
11699;SDS011;5906;51.660;6.674;2022-12-20T14:33:39;10.67;;;6.37;;
11699;SDS011;5906;51.660;6.674;2022-12-20T14:36:18;10.90;;;6.27;;
11699;SDS011;5906;51.660;6.674;2022-12-20T14:38:47;8.63;;;5.83;;
11699;SDS011;5906;51.660;6.674;2022-12-20T14:41:37;7.93;;;5.43;;
11699;SDS011;5906;51.660;6.674;2022-12-20T14:46:33;8.40;;;5.40;;
11699;SDS011;5906;51.660;6.674;2022-12-20T14:51:48;5.77;;;4.30;;
11699;SDS011;5906;51.660;6.674;2022-12-20T14:54:20;10.57;;;4.80;;
11699;SDS011;5906;51.660;6.674;2022-12-20T14:59:42;11.03;;;5.60;;
11699;SDS011;5906;51.660;6.674;2022-12-20T15:08:36;7.10;;;4.53;;
11699;SDS011;5906;51.660;6.674;2022-12-20T15:11:20;4.73;;;4.23;;
11699;SDS011;5906;51.660;6.674;2022-12-20T15:13:50;6.90;;;4.53;;
11699;SDS011;5906;51.660;6.674;2022-12-20T15:16:23;8.43;;;4.37;;
11699;SDS011;5906;51.660;6.674;2022-12-20T15:18:53;7.00;;;5.47;;
11699;SDS011;5906;51.660;6.674;2022-12-20T15:23:55;4.80;;;4.23;;
11699;SDS011;5906;51.660;6.674;2022-12-20T15:26:26;10.73;;;5.70;;
11699;SDS011;5906;51.660;6.674;2022-12-20T15:28:54;5.23;;;4.73;;
11699;SDS011;5906;51.660;6.674;2022-12-20T15:31:21;5.57;;;4.80;;
11699;SDS011;5906;51.660;6.674;2022-12-20T15:33:58;8.27;;;4.80;;
11699;SDS011;5906;51.660;6.674;2022-12-20T15:36:28;7.60;;;5.33;;
11699;SDS011;5906;51.660;6.674;2022-12-20T15:38:56;8.10;;;4.90;;
11699;SDS011;5906;51.660;6.674;2022-12-20T15:41:42;8.57;;;5.50;;
11699;SDS011;5906;51.660;6.674;2022-12-20T15:44:12;7.30;;;4.30;;
11699;SDS011;5906;51.660;6.674;2022-12-20T15:46:45;9.83;;;5.07;;
11699;SDS011;5906;51.660;6.674;2022-12-20T15:49:13;10.00;;;5.30;;
11699;SDS011;5906;51.660;6.674;2022-12-20T15:51:42;5.37;;;4.60;;
11699;SDS011;5906;51.660;6.674;2022-12-20T15:54:21;4.67;;;4.20;;
11699;SDS011;5906;51.660;6.674;2022-12-20T15:56:56;9.80;;;5.60;;
11699;SDS011;5906;51.660;6.674;2022-12-20T15:59:29;7.40;;;5.07;;
11699;SDS011;5906;51.660;6.674;2022-12-20T16:04:54;7.23;;;5.70;;
11699;SDS011;5906;51.660;6.674;2022-12-20T16:07:23;8.07;;;6.10;;
11699;SDS011;5906;51.660;6.674;2022-12-20T16:09:50;6.83;;;5.10;;
11699;SDS011;5906;51.660;6.674;2022-12-20T16:12:22;6.70;;;5.07;;
11699;SDS011;5906;51.660;6.674;2022-12-20T16:14:55;6.33;;;5.43;;
11699;SDS011;5906;51.660;6.674;2022-12-20T16:17:22;7.67;;;5.37;;
11699;SDS011;5906;51.660;6.674;2022-12-20T16:19:50;7.17;;;4.90;;
11699;SDS011;5906;51.660;6.674;2022-12-20T16:22:18;6.00;;;5.40;;
11699;SDS011;5906;51.660;6.674;2022-12-20T16:24:48;7.13;;;5.13;;
11699;SDS011;5906;51.660;6.674;2022-12-20T16:27:15;10.27;;;6.10;;
11699;SDS011;5906;51.660;6.674;2022-12-20T16:29:42;6.80;;;5.50;;
11699;SDS011;5906;51.660;6.674;2022-12-20T16:32:15;9.33;;;5.87;;
11699;SDS011;5906;51.660;6.674;2022-12-20T16:34:44;13.60;;;6.90;;
11699;SDS011;5906;51.660;6.674;2022-12-20T16:37:12;11.40;;;7.00;;
11699;SDS011;5906;51.660;6.674;2022-12-20T16:39:39;10.07;;;6.07;;
11699;SDS011;5906;51.660;6.674;2022-12-20T16:42:11;11.20;;;6.10;;
11699;SDS011;5906;51.660;6.674;2022-12-20T16:44:42;13.63;;;6.43;;
11699;SDS011;5906;51.660;6.674;2022-12-20T16:47:11;9.47;;;6.13;;
11699;SDS011;5906;51.660;6.674;2022-12-20T16:49:40;13.67;;;6.90;;
11699;SDS011;5906;51.660;6.674;2022-12-20T16:52:17;11.13;;;6.20;;
11699;SDS011;5906;51.660;6.674;2022-12-20T16:54:45;9.50;;;6.40;;
11699;SDS011;5906;51.660;6.674;2022-12-20T16:57:12;13.40;;;7.23;;
11699;SDS011;5906;51.660;6.674;2022-12-20T16:59:39;17.00;;;8.67;;
11699;SDS011;5906;51.660;6.674;2022-12-20T17:04:49;16.77;;;8.27;;
11699;SDS011;5906;51.660;6.674;2022-12-20T17:07:16;10.07;;;6.73;;
11699;SDS011;5906;51.660;6.674;2022-12-20T17:09:43;13.53;;;7.20;;
11699;SDS011;5906;51.660;6.674;2022-12-20T17:12:14;10.33;;;7.40;;
11699;SDS011;5906;51.660;6.674;2022-12-20T17:14:42;15.40;;;7.33;;
11699;SDS011;5906;51.660;6.674;2022-12-20T17:17:10;10.10;;;7.10;;
11699;SDS011;5906;51.660;6.674;2022-12-20T17:19:37;10.13;;;7.47;;
11699;SDS011;5906;51.660;6.674;2022-12-20T17:22:04;9.97;;;7.23;;
11699;SDS011;5906;51.660;6.674;2022-12-20T17:24:50;8.60;;;6.87;;
11699;SDS011;5906;51.660;6.674;2022-12-20T17:27:18;14.17;;;8.63;;
11699;SDS011;5906;51.660;6.674;2022-12-20T17:29:45;10.73;;;7.20;;
11699;SDS011;5906;51.660;6.674;2022-12-20T17:32:19;8.77;;;7.10;;
11699;SDS011;5906;51.660;6.674;2022-12-20T17:34:47;12.53;;;7.17;;
11699;SDS011;5906;51.660;6.674;2022-12-20T17:37:15;10.17;;;7.10;;
11699;SDS011;5906;51.660;6.674;2022-12-20T17:39:43;11.43;;;7.30;;
11699;SDS011;5906;51.660;6.674;2022-12-20T17:42:13;12.87;;;8.27;;
11699;SDS011;5906;51.660;6.674;2022-12-20T17:44:41;13.40;;;9.00;;
11699;SDS011;5906;51.660;6.674;2022-12-20T17:47:08;22.10;;;10.30;;
11699;SDS011;5906;51.660;6.674;2022-12-20T17:49:37;16.20;;;9.00;;
11699;SDS011;5906;51.660;6.674;2022-12-20T17:52:04;14.23;;;7.67;;
11699;SDS011;5906;51.660;6.674;2022-12-20T17:54:32;13.30;;;8.23;;
11699;SDS011;5906;51.660;6.674;2022-12-20T17:57:05;13.73;;;8.50;;